createdAt,value
2022-08-24T00:04:56.703Z,96067.75
2022-08-24T00:10:01.002Z,96063.28
2022-08-24T00:15:05.802Z,96065.78
2022-08-24T00:20:11.378Z,96071.75
2022-08-24T00:25:17.306Z,96066.44
2022-08-24T00:30:21.633Z,96073.94
2022-08-24T00:35:24.945Z,96067.19
2022-08-24T00:40:44.229Z,96062.72
2022-08-24T00:45:52.727Z,96065.16
2022-08-24T00:50:59.662Z,96068.19
2022-08-24T00:56:07.886Z,96071.00
2022-08-24T01:01:13.817Z,96069.19
2022-08-24T01:06:16.957Z,96063.25
2022-08-24T01:11:24.897Z,96063.34
2022-08-24T01:16:45.091Z,96063.03
2022-08-24T01:21:54.263Z,96070.34
2022-08-24T01:26:59.649Z,96062.25
2022-08-24T01:32:02.507Z,96063.28
2022-08-24T01:37:08.639Z,96070.97
2022-08-24T01:42:14.353Z,96071.66
2022-08-24T01:47:18.353Z,96067.13
2022-08-24T01:52:23.751Z,96064.31
2022-08-24T01:57:28.328Z,96065.91
2022-08-24T02:02:32.846Z,96069.28
2022-08-24T02:07:35.674Z,96073.31
2022-08-24T02:12:42.494Z,96075.56
2022-08-24T02:17:45.311Z,96072.38
2022-08-24T02:22:48.677Z,96077.59
2022-08-24T02:27:53.867Z,96075.81
2022-08-24T02:32:56.654Z,96075.25
2022-08-24T02:37:59.870Z,96078.63
2022-08-24T02:43:04.547Z,96084.94
2022-08-24T02:48:07.523Z,96082.81
2022-08-24T02:53:10.472Z,96084.75
2022-08-24T02:58:15.783Z,96081.00
2022-08-24T03:03:18.597Z,96086.22
2022-08-24T03:08:21.410Z,96079.97
2022-08-24T03:13:26.642Z,96081.94
2022-08-24T03:18:29.570Z,96082.56
2022-08-24T03:23:34.705Z,96080.94
2022-08-24T03:28:39.416Z,96079.13
2022-08-24T03:33:42.251Z,96083.22
2022-08-24T03:38:45.311Z,96073.03
2022-08-24T03:43:49.764Z,96073.28
2022-08-24T03:48:52.568Z,96069.59
2022-08-24T03:53:58.573Z,96066.31
2022-08-24T03:59:02.745Z,96060.97
2022-08-24T04:04:06.522Z,96062.03
2022-08-24T04:09:09.362Z,96070.63
2022-08-24T04:14:23.680Z,96071.59
2022-08-24T04:19:30.452Z,96060.09
2022-08-24T04:24:33.217Z,96064.34
2022-08-24T04:29:37.376Z,96066.31
2022-08-24T04:34:40.153Z,96068.19
2022-08-24T04:39:43.219Z,96070.59
2022-08-24T04:44:47.433Z,96082.69
2022-08-24T04:49:50.185Z,96083.38
2022-08-24T04:54:52.957Z,96085.66
2022-08-24T04:59:59.164Z,96085.47
2022-08-24T05:05:02.084Z,96087.13
2022-08-24T05:10:07.487Z,96084.97
2022-08-24T05:15:13.542Z,96092.00
2022-08-24T05:20:16.325Z,96095.97
2022-08-24T05:25:19.346Z,96091.75
2022-08-24T05:30:23.567Z,96095.38
2022-08-24T05:35:26.389Z,96090.97
2022-08-24T05:40:33.255Z,96102.06
2022-08-24T05:45:37.698Z,96109.13
2022-08-24T05:50:40.490Z,96114.94
2022-08-24T05:55:43.296Z,96111.44
2022-08-24T06:00:49.610Z,96110.25
2022-08-24T06:05:53.095Z,96111.72
2022-08-24T06:10:55.925Z,96117.59
2022-08-24T06:16:21.551Z,96123.59
2022-08-24T06:21:28.453Z,96122.09
2022-08-24T06:26:50.278Z,96124.13
2022-08-24T06:31:56.127Z,96127.38
2022-08-24T06:36:59.108Z,96122.66
2022-08-24T06:42:01.956Z,96124.06
2022-08-24T06:47:06.552Z,96128.13
2022-08-24T06:52:10.981Z,96131.94
2022-08-24T06:57:13.779Z,96131.81
2022-08-24T07:02:19.406Z,96135.63
2022-08-24T07:07:22.223Z,96140.78
2022-08-24T07:12:25.426Z,96142.34
2022-08-24T07:17:29.864Z,96141.03
2022-08-24T07:22:32.651Z,96139.06
2022-08-24T07:27:35.466Z,96150.06
2022-08-24T07:32:39.637Z,96152.16
2022-08-24T07:37:42.574Z,96158.28
2022-08-24T07:42:49.024Z,96159.53
2022-08-24T07:47:55.858Z,96148.09
2022-08-24T07:52:58.974Z,96152.13
2022-08-24T07:58:02.092Z,96153.13
2022-08-24T08:03:06.531Z,96139.59
2022-08-24T08:08:09.558Z,96151.16
2022-08-24T08:13:12.367Z,96156.41
2022-08-24T08:18:17.038Z,96155.94
2022-08-24T08:23:37.631Z,96148.16
2022-08-24T08:28:42.627Z,96154.66
2022-08-24T08:33:47.004Z,96156.19
2022-08-24T08:38:51.038Z,96159.72
2022-08-24T08:44:01.980Z,96155.50
2022-08-24T08:49:35.534Z,96140.22
2022-08-24T08:54:56.354Z,96152.69
2022-08-24T09:00:17.737Z,96158.22
2022-08-24T09:05:48.622Z,96150.25
2022-08-24T09:10:58.041Z,96157.94
2022-08-24T09:16:22.645Z,96143.78
2022-08-24T09:21:39.205Z,96158.75
2022-08-24T09:26:57.158Z,96153.78
2022-08-24T09:32:23.190Z,96152.06
2022-08-24T09:37:35.371Z,96143.41
2022-08-24T09:43:06.222Z,96140.75
2022-08-24T09:48:53.263Z,96136.66
2022-08-24T09:54:28.644Z,96136.00
2022-08-24T09:59:58.094Z,96125.13
2022-08-24T10:05:10.670Z,96120.75
2022-08-24T10:10:28.494Z,96105.56
2022-08-24T10:15:42.282Z,96111.81
2022-08-24T10:21:00.250Z,96114.56
2022-08-24T10:26:09.382Z,96116.75
2022-08-24T10:31:19.994Z,96118.97
2022-08-24T10:36:57.220Z,96110.84
2022-08-24T10:42:51.847Z,96105.25
2022-08-24T10:48:13.554Z,96103.44
2022-08-24T10:53:24.088Z,96100.34
2022-08-24T10:58:50.909Z,96093.59
2022-08-24T11:03:59.901Z,96083.06
2022-08-24T11:09:08.445Z,96083.06
2022-08-24T11:14:25.673Z,96083.81
2022-08-24T11:19:35.288Z,96081.75
2022-08-24T11:24:44.834Z,96076.53
2022-08-24T11:30:06.470Z,96076.28
2022-08-24T11:35:21.053Z,96081.53
2022-08-24T11:40:29.213Z,96081.19
2022-08-24T11:45:37.865Z,96070.72
2022-08-24T11:50:49.425Z,96076.16
2022-08-24T11:56:00.367Z,96069.75
2022-08-24T12:01:10.085Z,96077.31
2022-08-24T12:06:24.600Z,96071.25
2022-08-24T12:11:41.836Z,96079.47
2022-08-24T12:16:52.937Z,96079.25
2022-08-24T12:22:00.460Z,96066.78
2022-08-24T12:27:07.885Z,96080.78
2022-08-24T12:32:16.101Z,96079.22
2022-08-24T12:37:25.211Z,96070.06
2022-08-24T12:42:35.080Z,96070.13
2022-08-24T12:47:46.700Z,96065.84
2022-08-24T12:53:19.384Z,96064.84
2022-08-24T12:58:54.403Z,96065.56
2022-08-24T13:04:06.878Z,96059.53
2022-08-24T13:09:18.107Z,96063.66
2022-08-24T13:14:23.362Z,96047.81
2022-08-24T13:19:36.413Z,96049.16
2022-08-24T13:24:44.741Z,96055.13
2022-08-24T13:29:55.468Z,96049.81
2022-08-24T13:34:59.710Z,96048.44
2022-08-24T13:40:14.925Z,96050.53
2022-08-24T13:45:34.146Z,96045.97
2022-08-24T13:50:47.586Z,96044.63
2022-08-24T13:55:53.625Z,96043.34
2022-08-24T14:01:03.835Z,96038.28
2022-08-24T14:06:23.003Z,96033.72
2022-08-24T14:11:45.562Z,96030.22
2022-08-24T14:17:21.683Z,96031.03
2022-08-24T14:22:35.135Z,96025.13
2022-08-24T14:27:42.541Z,96017.31
2022-08-24T14:33:04.152Z,96015.09
2022-08-24T14:38:23.445Z,96018.94
2022-08-24T14:43:35.702Z,96009.75
2022-08-24T14:48:48.740Z,96014.44
2022-08-24T14:54:02.115Z,96004.75
2022-08-24T14:59:13.061Z,95998.53
2022-08-24T15:04:43.849Z,96000.75
2022-08-24T15:09:47.013Z,95999.66
2022-08-24T15:14:55.734Z,96006.91
2022-08-24T15:20:04.349Z,96002.28
2022-08-24T15:25:12.566Z,95992.06
2022-08-24T15:30:27.317Z,96001.41
2022-08-24T15:35:33.039Z,95988.53
2022-08-24T15:40:35.857Z,95990.03
2022-08-24T15:45:49.681Z,95985.34
2022-08-24T15:50:55.816Z,95981.38
2022-08-24T15:55:58.982Z,95984.25
2022-08-24T16:01:39.579Z,95996.81
2022-08-24T16:06:45.260Z,95992.84
2022-08-24T16:11:59.424Z,95999.63
2022-08-24T16:17:31.301Z,95991.63
2022-08-24T16:22:37.845Z,95988.34
2022-08-24T16:27:56.667Z,95981.63
2022-08-24T16:33:05.946Z,95991.75
2022-08-24T16:38:08.993Z,95985.31
2022-08-24T16:43:11.841Z,95983.06
2022-08-24T16:48:16.247Z,95974.34
2022-08-24T16:53:19.087Z,95983.47
2022-08-24T16:58:24.086Z,95985.94
2022-08-24T17:03:28.982Z,95979.81
2022-08-24T17:08:32.069Z,95984.53
2022-08-24T17:13:50.818Z,95986.25
2022-08-24T17:18:55.316Z,95986.84
2022-08-24T17:23:58.093Z,95990.53
2022-08-24T17:29:04.375Z,95979.50
2022-08-24T17:34:09.159Z,95990.34
2022-08-24T17:39:13.689Z,95991.66
2022-08-24T17:44:23.665Z,95985.13
2022-08-24T17:49:28.433Z,95983.16
2022-08-24T17:54:31.239Z,95983.19
2022-08-24T17:59:36.242Z,95997.34
2022-08-24T18:04:41.318Z,96005.53
2022-08-24T18:09:48.049Z,96005.53
2022-08-24T18:14:51.462Z,96000.69
2022-08-24T18:19:55.777Z,96005.34
2022-08-24T18:24:58.565Z,96004.13
2022-08-24T18:30:06.183Z,96002.25
2022-08-24T18:35:10.486Z,96001.31
2022-08-24T18:40:20.409Z,95999.06
2022-08-24T18:45:27.514Z,96004.41
2022-08-24T18:50:37.714Z,96006.81
2022-08-24T18:55:46.108Z,96014.97
2022-08-24T19:00:51.141Z,96020.22
2022-08-24T19:05:56.429Z,96015.28
2022-08-24T19:10:59.232Z,96021.00
2022-08-24T19:16:02.313Z,96016.44
2022-08-24T19:21:06.765Z,96013.88
2022-08-24T19:26:09.546Z,96025.38
2022-08-24T19:31:14.670Z,96009.88
2022-08-24T19:36:19.605Z,96023.72
2022-08-24T19:41:22.837Z,96017.00
2022-08-24T19:46:38.622Z,96032.19
2022-08-24T19:51:42.870Z,96029.59
2022-08-24T19:56:45.701Z,96037.34
2022-08-24T20:01:48.569Z,96034.72
2022-08-24T20:06:53.299Z,96040.59
2022-08-24T20:11:56.046Z,96038.78
2022-08-24T20:16:59.384Z,96035.94
2022-08-24T20:22:03.541Z,96035.63
2022-08-24T20:27:21.532Z,96034.78
2022-08-24T20:32:24.348Z,96033.16
2022-08-24T20:37:31.270Z,96036.59
2022-08-24T20:42:34.070Z,96044.94
2022-08-24T20:47:48.462Z,96040.06
2022-08-24T20:52:53.984Z,96040.69
2022-08-24T20:58:00.669Z,96042.56
2022-08-24T21:03:03.591Z,96038.69
2022-08-24T21:08:08.331Z,96047.97
2022-08-24T21:13:11.477Z,96048.16
2022-08-24T21:18:14.697Z,96057.31
2022-08-24T21:23:18.812Z,96044.16
2022-08-24T21:28:22.331Z,96052.81
2022-08-24T21:33:41.839Z,96060.78
2022-08-24T21:38:46.002Z,96055.50
2022-08-24T21:43:48.805Z,96062.25
2022-08-24T21:48:51.623Z,96061.25
2022-08-24T21:53:59.675Z,96064.50
2022-08-24T21:59:02.832Z,96060.88
2022-08-24T22:04:05.983Z,96064.75
2022-08-24T22:09:10.361Z,96061.13
2022-08-24T22:14:15.178Z,96070.31
2022-08-24T22:19:18.018Z,96055.66
2022-08-24T22:24:22.141Z,96067.88
2022-08-24T22:29:25.122Z,96069.47
2022-08-24T22:34:27.912Z,96072.53
2022-08-24T22:39:32.601Z,96066.81
2022-08-24T22:44:36.338Z,96066.41
2022-08-24T22:49:41.406Z,96073.97
2022-08-24T22:54:45.582Z,96075.97
2022-08-24T22:59:48.395Z,96073.50
2022-08-24T23:04:52.820Z,96081.03
2022-08-24T23:09:57.071Z,96085.31
2022-08-24T23:15:00.065Z,96087.13
2022-08-24T23:20:06.110Z,96084.88
2022-08-24T23:25:12.785Z,96078.75
2022-08-24T23:30:15.763Z,96084.59
2022-08-24T23:35:18.578Z,96087.22
2022-08-24T23:40:22.830Z,96083.19
2022-08-24T23:45:28.262Z,96081.16
2022-08-24T23:50:31.635Z,96086.84
2022-08-24T23:55:36.117Z,96073.16
